Time;durP1;ratioP1;P1;durP2;ratioP2;P2;SDS_P1;SDS_P2;PMS_P1;PMS_P2;Temp;Humidity;BMP_temperature;BMP_pressure;BME280_temperature;BME280_humidity;BME280_pressure;Samples;Min_cycle;Max_cycle;Signal;HPM_P1;HPM_P2
2021/01/20 00:00:27;;;;;;;12.30;7.97;;;7.40;99.90;;;;;;4989504;28;20194;-61
2021/01/20 00:02:54;;;;;;;12.03;8.30;;;7.40;99.90;;;;;;4978582;28;20264;-61
2021/01/20 00:05:20;;;;;;;12.27;8.73;;;7.40;99.90;;;;;;4979331;28;20929;-60
2021/01/20 00:07:47;;;;;;;11.03;8.37;;;7.40;99.90;;;;;;4980651;28;20249;-60
2021/01/20 00:10:16;;;;;;;11.47;8.57;;;7.40;99.90;;;;;;4979320;28;20265;-61
2021/01/20 00:12:45;;;;;;;13.57;8.70;;;7.40;99.90;;;;;;4978743;28;20198;-61
2021/01/20 00:15:14;;;;;;;12.80;9.00;;;7.40;99.90;;;;;;4988753;28;20214;-63
2021/01/20 00:17:41;;;;;;;10.40;8.07;;;7.40;99.90;;;;;;4986947;28;20209;-61
2021/01/20 00:20:09;;;;;;;11.40;9.00;;;7.40;99.90;;;;;;4984866;28;20245;-60
2021/01/20 00:22:35;;;;;;;12.43;8.90;;;7.40;99.90;;;;;;4993178;28;20671;-61
2021/01/20 00:25:02;;;;;;;11.47;9.07;;;7.40;99.90;;;;;;4992266;28;20206;-61
2021/01/20 00:27:30;;;;;;;12.57;9.30;;;7.40;99.90;;;;;;4984009;28;20217;-60
2021/01/20 00:29:56;;;;;;;11.57;8.47;;;7.40;99.90;;;;;;4979654;28;20202;-62
2021/01/20 00:32:23;;;;;;;11.67;9.10;;;7.40;99.90;;;;;;4981056;28;20256;-64
2021/01/20 00:34:49;;;;;;;15.37;10.17;;;7.40;99.90;;;;;;4983626;28;20201;-64
2021/01/20 00:37:16;;;;;;;13.40;9.70;;;7.40;99.90;;;;;;4983430;28;20202;-61
2021/01/20 00:39:42;;;;;;;14.47;10.10;;;7.50;99.90;;;;;;4979305;28;20206;-63
2021/01/20 00:42:09;;;;;;;12.80;9.97;;;7.50;99.90;;;;;;4977521;28;20264;-61
2021/01/20 00:44:36;;;;;;;16.60;10.20;;;7.50;99.90;;;;;;4983439;28;20201;-61
2021/01/20 00:47:03;;;;;;;15.20;10.07;;;7.50;99.90;;;;;;4988874;28;21262;-61
2021/01/20 00:49:29;;;;;;;16.97;10.70;;;7.50;99.90;;;;;;4989457;28;20264;-64
2021/01/20 00:51:56;;;;;;;13.60;10.50;;;7.50;99.90;;;;;;4981286;28;20248;-64
2021/01/20 00:54:22;;;;;;;16.57;11.40;;;7.50;99.90;;;;;;4974354;28;20210;-63
2021/01/20 00:56:49;;;;;;;17.80;11.57;;;7.50;99.90;;;;;;4975627;28;20663;-61
2021/01/20 00:59:15;;;;;;;15.20;11.07;;;7.50;99.90;;;;;;4979369;28;20198;-62
2021/01/20 01:01:43;;;;;;;14.30;10.57;;;7.50;99.90;;;;;;4978109;28;20698;-61
2021/01/20 01:04:09;;;;;;;13.10;10.13;;;7.50;99.90;;;;;;4977854;28;20273;-60
2021/01/20 01:06:36;;;;;;;13.83;9.70;;;7.50;99.90;;;;;;4979206;28;20252;-60
2021/01/20 01:09:03;;;;;;;15.57;9.50;;;7.50;99.90;;;;;;4980513;28;20206;-63
2021/01/20 01:11:30;;;;;;;12.70;9.93;;;7.60;99.90;;;;;;4978569;28;20206;-61
2021/01/20 01:13:56;;;;;;;16.33;11.50;;;7.60;99.90;;;;;;4986966;28;20605;-62
2021/01/20 01:16:23;;;;;;;13.67;11.07;;;7.60;99.90;;;;;;4985183;28;20205;-61
2021/01/20 01:18:50;;;;;;;15.90;11.13;;;7.60;99.90;;;;;;4977905;28;20211;-62
2021/01/20 01:21:17;;;;;;;18.17;11.30;;;7.60;99.90;;;;;;4977092;28;20276;-64
2021/01/20 01:23:43;;;;;;;16.23;10.70;;;7.60;99.90;;;;;;4977626;28;20197;-63
2021/01/20 01:26:10;;;;;;;15.60;11.67;;;7.60;99.90;;;;;;4982685;28;20233;-61
2021/01/20 01:28:36;;;;;;;16.63;11.07;;;7.60;99.90;;;;;;4977637;28;22492;-62
2021/01/20 01:31:03;;;;;;;14.97;11.40;;;7.60;99.90;;;;;;4977581;28;20214;-61
2021/01/20 01:33:31;;;;;;;15.30;11.30;;;7.60;99.90;;;;;;4978381;28;20198;-61
2021/01/20 01:35:59;;;;;;;16.53;11.53;;;7.60;99.90;;;;;;4987365;28;20289;-61
2021/01/20 01:38:25;;;;;;;13.77;11.30;;;7.60;99.90;;;;;;4991190;28;20202;-60
2021/01/20 01:40:52;;;;;;;16.37;11.73;;;7.60;99.90;;;;;;4986439;28;20198;-62
2021/01/20 01:43:18;;;;;;;16.30;11.93;;;7.60;99.90;;;;;;4982703;28;20228;-64
2021/01/20 01:45:45;;;;;;;13.80;10.60;;;7.60;99.90;;;;;;4983763;28;20733;-60
2021/01/20 01:48:11;;;;;;;17.63;11.73;;;7.60;99.90;;;;;;4976115;28;20213;-63
2021/01/20 01:50:38;;;;;;;16.13;12.13;;;7.60;99.90;;;;;;4987860;28;20209;-61
2021/01/20 01:53:06;;;;;;;16.93;12.40;;;7.60;99.90;;;;;;4983594;28;20201;-60
2021/01/20 01:55:32;;;;;;;14.63;11.40;;;7.70;99.90;;;;;;4986239;28;20209;-61
2021/01/20 01:57:59;;;;;;;14.53;10.83;;;7.60;99.90;;;;;;4988025;28;20201;-60
2021/01/20 02:00:25;;;;;;;14.20;11.40;;;7.60;99.90;;;;;;4990151;28;20201;-61
2021/01/20 02:02:52;;;;;;;15.97;11.27;;;7.70;99.90;;;;;;4987814;28;20201;-62
2021/01/20 02:05:19;;;;;;;17.43;10.67;;;7.70;99.90;;;;;;4987935;28;20202;-61
2021/01/20 02:07:46;;;;;;;15.67;11.37;;;7.70;99.90;;;;;;4983840;28;20309;-61
2021/01/20 02:10:14;;;;;;;16.93;11.73;;;7.60;99.90;;;;;;4981033;28;20221;-61
2021/01/20 02:13:13;;;;;;;14.03;11.77;;;7.60;99.90;;;;;;4979662;28;20214;-61
2021/01/20 02:15:45;;;;;;;15.60;10.97;;;7.70;99.90;;;;;;4979175;28;20207;-62
2021/01/20 02:18:15;;;;;;;14.77;11.87;;;7.60;99.90;;;;;;4980636;28;20198;-60
2021/01/20 02:21:26;;;;;;;13.07;10.43;;;7.70;99.90;;;;;;4978035;28;20220;-61
2021/01/20 02:23:56;;;;;;;14.20;11.00;;;7.70;99.90;;;;;;4957970;28;20209;-60
2021/01/20 02:26:30;;;;;;;14.73;10.77;;;7.70;99.90;;;;;;4987528;28;20225;-64
2021/01/20 02:29:32;;;;;;;15.67;10.83;;;7.80;99.90;;;;;;4986801;28;20202;-61
2021/01/20 02:32:02;;;;;;;15.77;10.50;;;7.70;99.90;;;;;;4985026;28;20205;-60
2021/01/20 02:34:32;;;;;;;15.43;11.10;;;7.80;99.90;;;;;;4991015;28;20209;-60
2021/01/20 02:37:01;;;;;;;15.90;11.33;;;7.70;99.90;;;;;;4988933;28;20190;-60
2021/01/20 02:39:29;;;;;;;14.73;10.90;;;7.70;99.90;;;;;;4990646;28;20661;-64
2021/01/20 02:42:02;;;;;;;17.07;11.00;;;7.70;99.90;;;;;;4979570;28;20202;-62
2021/01/20 02:44:29;;;;;;;15.07;10.23;;;7.70;99.90;;;;;;4974098;28;20320;-61
2021/01/20 02:46:55;;;;;;;13.93;10.30;;;7.70;99.90;;;;;;4973970;28;20241;-63
2021/01/20 02:49:23;;;;;;;14.27;10.80;;;7.70;99.90;;;;;;4984163;28;20216;-60
2021/01/20 02:51:54;;;;;;;13.90;10.60;;;7.70;99.90;;;;;;4990833;28;20206;-60
2021/01/20 02:54:22;;;;;;;14.17;10.90;;;7.70;99.90;;;;;;4990431;28;22082;-60
2021/01/20 02:56:51;;;;;;;13.67;10.47;;;7.70;99.90;;;;;;4974241;28;21244;-63
2021/01/20 02:59:20;;;;;;;13.97;11.00;;;7.70;99.90;;;;;;4977404;28;20206;-60
2021/01/20 03:01:50;;;;;;;11.83;9.93;;;7.70;99.90;;;;;;4980403;28;20198;-62
2021/01/20 03:04:18;;;;;;;14.90;9.90;;;7.70;99.90;;;;;;4986242;28;20709;-61
2021/01/20 03:06:46;;;;;;;12.17;10.43;;;7.70;99.90;;;;;;4981118;28;20238;-61
2021/01/20 03:09:14;;;;;;;14.00;10.47;;;7.80;99.90;;;;;;4986450;28;20198;-61
2021/01/20 03:11:47;;;;;;;12.47;10.13;;;7.70;99.90;;;;;;4978455;28;20648;-60
2021/01/20 03:14:15;;;;;;;11.13;9.67;;;7.70;99.90;;;;;;4978019;28;20989;-61
2021/01/20 03:16:42;;;;;;;11.97;10.40;;;7.70;99.90;;;;;;4978163;28;20209;-64
2021/01/20 03:19:08;;;;;;;13.70;10.30;;;7.70;99.90;;;;;;4980348;28;20210;-60
2021/01/20 03:21:35;;;;;;;15.00;10.20;;;7.70;99.90;;;;;;4979695;28;20202;-65
2021/01/20 03:24:03;;;;;;;13.37;10.20;;;7.70;99.90;;;;;;4979353;28;20198;-61
2021/01/20 03:26:30;;;;;;;12.77;9.97;;;7.70;99.90;;;;;;4980067;28;20226;-64
2021/01/20 03:28:56;;;;;;;14.10;10.37;;;7.70;99.90;;;;;;4978310;28;20252;-61
2021/01/20 03:31:23;;;;;;;12.03;10.17;;;7.70;99.90;;;;;;4983853;28;20202;-61
2021/01/20 03:33:49;;;;;;;13.13;10.13;;;7.80;99.90;;;;;;4994683;28;20198;-62
2021/01/20 03:36:16;;;;;;;11.23;9.17;;;7.80;99.90;;;;;;4980541;28;20268;-62
2021/01/20 03:38:42;;;;;;;13.00;9.77;;;7.80;99.90;;;;;;4978199;28;20213;-64
2021/01/20 03:41:10;;;;;;;11.53;9.77;;;7.80;99.90;;;;;;4981771;28;20210;-63
2021/01/20 03:43:36;;;;;;;14.87;10.73;;;7.80;99.90;;;;;;4976698;28;20205;-62
2021/01/20 03:46:03;;;;;;;13.03;10.43;;;7.80;99.90;;;;;;4979675;28;20236;-61
2021/01/20 03:48:29;;;;;;;12.80;9.93;;;7.80;99.90;;;;;;4978657;28;20198;-63
2021/01/20 03:50:56;;;;;;;14.63;10.50;;;7.80;99.90;;;;;;4980130;28;20197;-62
2021/01/20 03:53:22;;;;;;;14.77;9.67;;;7.80;99.90;;;;;;4979147;28;20209;-61
2021/01/20 03:55:49;;;;;;;11.63;9.37;;;7.80;99.90;;;;;;4979379;28;20206;-61
2021/01/20 03:58:17;;;;;;;12.10;9.87;;;7.80;99.90;;;;;;4979767;28;20263;-63
2021/01/20 04:00:43;;;;;;;13.67;9.83;;;7.80;99.90;;;;;;4983139;28;20205;-63
2021/01/20 04:03:10;;;;;;;13.97;9.70;;;7.80;99.90;;;;;;4983192;28;20661;-64
2021/01/20 04:05:36;;;;;;;13.73;10.40;;;7.80;99.90;;;;;;4982623;28;20204;-64
2021/01/20 04:08:03;;;;;;;12.50;9.93;;;7.90;99.90;;;;;;4984178;28;20229;-61
2021/01/20 04:10:29;;;;;;;11.03;9.10;;;7.80;99.90;;;;;;4981944;28;20205;-61
2021/01/20 04:12:56;;;;;;;12.40;8.80;;;7.90;99.90;;;;;;4979474;28;20213;-61
2021/01/20 04:15:24;;;;;;;11.83;9.20;;;7.90;99.90;;;;;;4985387;28;20264;-61
2021/01/20 04:17:51;;;;;;;10.03;8.43;;;7.90;99.90;;;;;;4981274;28;20205;-62
2021/01/20 04:20:17;;;;;;;13.27;8.97;;;7.90;99.90;;;;;;4979578;28;20201;-61
2021/01/20 04:22:44;;;;;;;11.00;8.23;;;7.90;99.90;;;;;;4975985;28;20213;-62
2021/01/20 04:25:11;;;;;;;10.70;8.53;;;7.90;99.90;;;;;;4978622;28;20203;-62
2021/01/20 04:27:38;;;;;;;9.97;8.13;;;7.90;99.90;;;;;;4970201;28;22447;-61
2021/01/20 04:30:06;;;;;;;15.37;8.77;;;8.00;99.90;;;;;;4976753;28;20225;-64
2021/01/20 04:32:33;;;;;;;10.10;8.53;;;7.90;99.90;;;;;;4972097;28;20209;-62
2021/01/20 04:35:00;;;;;;;14.67;8.53;;;8.00;99.90;;;;;;4978585;28;20202;-64
2021/01/20 04:37:26;;;;;;;8.70;7.40;;;8.00;99.90;;;;;;4973561;28;20198;-62
2021/01/20 04:39:53;;;;;;;8.87;7.83;;;7.90;99.90;;;;;;4976047;28;20204;-64
2021/01/20 04:42:19;;;;;;;9.60;8.37;;;8.00;99.90;;;;;;4978367;28;20209;-62
2021/01/20 04:44:48;;;;;;;8.87;7.07;;;8.00;99.90;;;;;;4980634;28;20202;-64
2021/01/20 04:47:16;;;;;;;11.90;7.73;;;8.00;99.90;;;;;;4974703;28;20225;-61
2021/01/20 04:49:46;;;;;;;10.57;7.73;;;8.00;99.90;;;;;;4978823;28;20217;-61
2021/01/20 04:52:18;;;;;;;11.17;7.90;;;8.00;99.90;;;;;;4982928;28;20297;-61
2021/01/20 04:54:45;;;;;;;10.63;8.07;;;8.00;99.90;;;;;;4975077;28;20194;-60
2021/01/20 04:57:13;;;;;;;7.60;6.53;;;8.00;99.90;;;;;;4972407;28;20451;-63
2021/01/20 04:59:42;;;;;;;8.87;7.77;;;8.00;99.90;;;;;;4975780;28;20205;-61
2021/01/20 05:02:10;;;;;;;9.47;7.80;;;8.00;99.90;;;;;;4973346;28;20230;-63
2021/01/20 05:04:38;;;;;;;10.23;7.80;;;8.00;99.90;;;;;;4973826;28;20218;-62
2021/01/20 05:07:07;;;;;;;8.43;7.33;;;8.00;99.90;;;;;;4972562;28;20789;-61
2021/01/20 05:09:33;;;;;;;8.90;7.37;;;8.00;99.90;;;;;;4976436;28;20205;-62
2021/01/20 05:12:01;;;;;;;9.70;6.73;;;8.00;99.90;;;;;;4975470;28;20213;-64
2021/01/20 05:14:28;;;;;;;10.67;7.60;;;8.00;99.90;;;;;;4975505;28;20291;-61
2021/01/20 05:17:05;;;;;;;10.20;7.33;;;8.00;99.90;;;;;;4975258;28;20210;-64
2021/01/20 05:19:37;;;;;;;10.27;7.10;;;8.00;99.90;;;;;;4973781;28;20330;-64
2021/01/20 05:22:06;;;;;;;9.87;7.00;;;8.00;99.90;;;;;;4974357;28;20206;-62
2021/01/20 05:24:35;;;;;;;8.47;6.83;;;8.00;99.90;;;;;;4973488;28;20208;-64
2021/01/20 05:27:02;;;;;;;9.50;6.90;;;8.00;99.90;;;;;;4977525;28;20269;-61
2021/01/20 05:29:29;;;;;;;8.43;6.90;;;8.00;99.90;;;;;;4974967;28;20206;-63
2021/01/20 05:31:56;;;;;;;9.80;6.87;;;8.00;99.90;;;;;;4974629;28;20195;-63
2021/01/20 05:34:28;;;;;;;10.07;6.90;;;8.00;99.90;;;;;;4972280;28;20213;-62
2021/01/20 05:37:02;;;;;;;8.43;6.77;;;8.00;99.90;;;;;;4969142;28;20207;-64
2021/01/20 05:39:30;;;;;;;8.90;6.70;;;8.00;99.90;;;;;;4976824;28;20284;-61
2021/01/20 05:42:01;;;;;;;8.73;6.83;;;8.00;99.90;;;;;;4973713;28;20236;-62
2021/01/20 05:44:27;;;;;;;7.60;6.80;;;8.00;99.90;;;;;;4973765;28;20198;-63
2021/01/20 05:46:55;;;;;;;8.70;6.30;;;8.00;99.90;;;;;;4971262;28;21289;-63
2021/01/20 05:49:23;;;;;;;8.67;6.70;;;8.00;99.90;;;;;;4972513;28;20224;-64
2021/01/20 05:51:50;;;;;;;9.40;6.77;;;8.00;99.90;;;;;;4974574;28;20202;-61
2021/01/20 05:54:31;;;;;;;7.50;6.50;;;8.00;99.90;;;;;;4971468;28;20248;-63
2021/01/20 05:57:10;;;;;;;9.37;6.67;;;8.00;99.90;;;;;;4970343;28;20208;-62
2021/01/20 05:59:36;;;;;;;7.50;6.70;;;8.00;99.90;;;;;;4975085;28;20205;-63
2021/01/20 06:02:03;;;;;;;7.90;6.97;;;8.00;99.90;;;;;;4978725;28;20614;-61
2021/01/20 06:04:31;;;;;;;8.37;6.87;;;8.00;99.90;;;;;;4971498;28;20578;-63
2021/01/20 06:06:58;;;;;;;7.93;7.00;;;8.00;99.90;;;;;;4973978;28;20229;-62
2021/01/20 06:09:25;;;;;;;9.80;6.70;;;8.00;99.90;;;;;;4971455;28;20194;-63
2021/01/20 06:11:53;;;;;;;7.97;6.50;;;8.00;99.90;;;;;;4972572;28;20206;-64
2021/01/20 06:14:19;;;;;;;8.13;6.60;;;7.90;99.90;;;;;;4974625;28;20209;-60
2021/01/20 06:16:50;;;;;;;8.53;6.50;;;7.90;99.90;;;;;;4972603;28;20217;-61
2021/01/20 06:19:20;;;;;;;7.43;6.73;;;7.90;99.90;;;;;;4971270;28;20373;-65
2021/01/20 06:21:49;;;;;;;10.40;6.73;;;7.90;99.90;;;;;;4981460;28;20198;-61
2021/01/20 06:24:23;;;;;;;10.43;7.07;;;7.90;99.90;;;;;;4975750;28;20213;-61
2021/01/20 06:26:56;;;;;;;7.40;6.67;;;7.90;99.90;;;;;;4975497;28;20305;-62
2021/01/20 06:29:27;;;;;;;8.47;6.03;;;7.90;99.90;;;;;;4975686;28;20264;-63
2021/01/20 06:31:56;;;;;;;9.43;6.20;;;7.90;99.90;;;;;;4975892;28;20213;-63
2021/01/20 06:34:23;;;;;;;7.87;7.03;;;7.90;99.90;;;;;;4971622;28;20208;-61
2021/01/20 06:36:49;;;;;;;7.77;5.90;;;7.80;99.90;;;;;;4973719;28;20214;-61
2021/01/20 06:39:33;;;;;;;7.80;5.87;;;7.80;99.90;;;;;;4976481;28;20198;-62
2021/01/20 06:42:02;;;;;;;8.93;6.40;;;7.80;99.90;;;;;;4978893;28;20277;-62
2021/01/20 06:44:29;;;;;;;9.20;6.77;;;7.80;99.90;;;;;;4973997;28;20202;-60
2021/01/20 06:47:01;;;;;;;6.53;5.83;;;7.90;99.90;;;;;;4972878;28;20349;-64
2021/01/20 06:49:29;;;;;;;11.17;5.60;;;7.80;99.90;;;;;;4978827;28;20209;-63
2021/01/20 06:52:13;;;;;;;8.30;6.37;;;7.80;99.90;;;;;;4974740;28;20686;-64
2021/01/20 06:54:41;;;;;;;7.40;6.07;;;7.80;99.90;;;;;;4976335;28;20217;-64
2021/01/20 06:57:31;;;;;;;8.67;6.00;;;7.70;99.90;;;;;;4980447;28;20252;-62
2021/01/20 07:00:14;;;;;;;8.17;6.03;;;7.70;99.90;;;;;;4975432;28;20251;-61
2021/01/20 07:03:03;;;;;;;5.90;5.30;;;7.70;99.90;;;;;;4978621;28;20198;-61
2021/01/20 07:05:35;;;;;;;6.40;5.73;;;7.70;99.90;;;;;;4973617;28;20222;-64
2021/01/20 07:08:03;;;;;;;6.77;5.77;;;7.70;99.90;;;;;;4974532;28;20953;-62
2021/01/20 07:10:31;;;;;;;8.93;6.17;;;7.60;99.90;;;;;;4978959;28;20207;-61
2021/01/20 07:13:30;;;;;;;7.73;5.13;;;7.60;99.90;;;;;;4973577;28;20194;-62
2021/01/20 07:15:57;;;;;;;7.70;5.30;;;7.60;99.90;;;;;;4978027;28;20199;-62
2021/01/20 07:18:25;;;;;;;6.70;5.40;;;7.50;99.90;;;;;;4979181;28;20221;-62
2021/01/20 07:20:53;;;;;;;6.63;5.47;;;7.50;99.90;;;;;;4985397;28;20198;-62
2021/01/20 07:23:20;;;;;;;9.53;5.37;;;7.40;99.90;;;;;;4982825;28;20198;-64
2021/01/20 07:25:51;;;;;;;8.97;5.30;;;7.50;99.90;;;;;;4978390;28;20212;-63
2021/01/20 07:28:19;;;;;;;4.90;4.30;;;7.50;99.90;;;;;;4975315;28;20217;-61
2021/01/20 07:30:46;;;;;;;5.37;4.87;;;7.50;99.90;;;;;;4973961;28;20202;-63
2021/01/20 07:33:21;;;;;;;6.83;4.67;;;7.60;99.90;;;;;;4977045;28;20202;-61
2021/01/20 07:35:48;;;;;;;8.07;4.90;;;7.70;99.90;;;;;;4979348;28;20208;-64
2021/01/20 07:38:15;;;;;;;5.20;4.20;;;7.80;99.90;;;;;;4978342;28;20197;-64
2021/01/20 07:40:43;;;;;;;6.87;4.90;;;7.90;99.90;;;;;;4976054;28;20212;-61
2021/01/20 07:43:23;;;;;;;7.27;4.20;;;7.90;99.90;;;;;;4973829;28;20210;-61
2021/01/20 07:45:52;;;;;;;7.10;4.50;;;8.00;99.90;;;;;;4974950;28;20660;-61
2021/01/20 07:48:29;;;;;;;5.83;4.70;;;8.00;99.90;;;;;;4974420;28;20253;-64
2021/01/20 07:50:56;;;;;;;5.97;4.00;;;8.00;99.90;;;;;;4987462;28;20345;-62
2021/01/20 07:53:24;;;;;;;4.67;4.23;;;8.00;99.90;;;;;;4979337;28;20212;-61
2021/01/20 07:55:55;;;;;;;4.83;3.97;;;8.10;99.90;;;;;;4985356;28;20248;-60
2021/01/20 07:58:29;;;;;;;5.87;4.10;;;8.10;99.90;;;;;;4976571;28;21589;-63
2021/01/20 08:00:56;;;;;;;7.73;4.30;;;8.10;99.90;;;;;;4975155;28;20195;-63
2021/01/20 08:03:33;;;;;;;5.50;4.20;;;8.00;99.90;;;;;;4984444;28;20202;-62
2021/01/20 08:06:01;;;;;;;5.83;4.60;;;8.10;99.90;;;;;;4983832;28;20249;-64
2021/01/20 08:08:28;;;;;;;4.57;3.83;;;8.10;99.90;;;;;;4985264;28;20217;-60
2021/01/20 08:11:00;;;;;;;8.10;4.10;;;8.10;99.90;;;;;;4980061;28;20199;-62
2021/01/20 08:13:30;;;;;;;4.27;3.80;;;8.10;99.90;;;;;;4978054;28;20460;-69
2021/01/20 08:15:58;;;;;;;5.20;4.23;;;8.10;99.90;;;;;;4976552;28;20542;-61
2021/01/20 08:18:26;;;;;;;5.00;3.73;;;8.10;99.90;;;;;;4979404;28;20297;-63
2021/01/20 08:20:53;;;;;;;4.47;3.47;;;8.10;99.90;;;;;;4979461;28;20220;-62
2021/01/20 08:23:42;;;;;;;4.97;4.10;;;8.20;99.90;;;;;;4980735;28;20214;-62
2021/01/20 08:26:09;;;;;;;4.03;3.40;;;8.20;99.90;;;;;;4982249;28;20197;-62
2021/01/20 08:28:36;;;;;;;4.60;3.57;;;8.20;99.90;;;;;;4976896;28;20281;-62
2021/01/20 08:31:22;;;;;;;8.07;3.87;;;8.20;99.90;;;;;;4980171;28;20244;-63
2021/01/20 08:33:48;;;;;;;6.23;3.53;;;8.20;99.90;;;;;;4977757;28;20300;-62
2021/01/20 08:36:23;;;;;;;4.40;3.37;;;8.30;99.90;;;;;;4975565;28;22054;-61
2021/01/20 08:39:05;;;;;;;4.33;3.47;;;8.30;99.90;;;;;;4977704;28;20208;-62
2021/01/20 08:41:32;;;;;;;5.03;3.50;;;8.30;99.90;;;;;;4992781;28;20248;-59
2021/01/20 08:44:14;;;;;;;4.77;3.60;;;8.40;99.90;;;;;;4992815;28;20267;-60
2021/01/20 08:46:42;;;;;;;3.63;3.13;;;8.40;99.90;;;;;;4991116;28;20194;-59
2021/01/20 08:49:08;;;;;;;5.37;3.60;;;8.40;99.90;;;;;;4991547;28;20209;-58
2021/01/20 08:51:35;;;;;;;5.50;3.80;;;8.40;99.90;;;;;;4989710;28;20203;-65
2021/01/20 08:54:11;;;;;;;3.63;3.27;;;8.50;99.90;;;;;;4988063;28;20539;-71
2021/01/20 08:56:37;;;;;;;3.93;3.40;;;8.50;99.90;;;;;;4980711;28;20208;-61
2021/01/20 08:59:04;;;;;;;3.53;2.63;;;8.50;99.90;;;;;;4980868;28;20213;-62
2021/01/20 09:01:30;;;;;;;3.93;3.13;;;8.50;99.90;;;;;;4985238;28;20194;-63
2021/01/20 09:03:59;;;;;;;3.93;3.20;;;8.50;99.90;;;;;;4979687;28;20213;-63
2021/01/20 09:06:27;;;;;;;3.37;3.07;;;8.50;99.90;;;;;;4981332;28;20847;-61
2021/01/20 09:08:54;;;;;;;3.37;3.07;;;8.50;99.90;;;;;;4980044;28;22424;-60
2021/01/20 09:11:20;;;;;;;4.60;3.70;;;8.50;99.90;;;;;;4980089;28;20308;-63
2021/01/20 09:13:47;;;;;;;3.50;3.20;;;8.50;99.90;;;;;;4980630;28;20209;-62
2021/01/20 09:16:14;;;;;;;4.07;3.30;;;8.50;99.90;;;;;;4980734;28;20202;-64
2021/01/20 09:18:40;;;;;;;3.47;2.93;;;8.50;99.90;;;;;;4981041;28;20209;-64
2021/01/20 09:21:08;;;;;;;3.43;2.90;;;8.50;99.90;;;;;;4979921;28;20213;-72
2021/01/20 09:23:34;;;;;;;4.27;3.47;;;8.60;99.90;;;;;;4988158;28;20202;-65
2021/01/20 09:26:01;;;;;;;3.70;3.07;;;8.60;99.90;;;;;;4985363;28;20198;-61
2021/01/20 09:28:28;;;;;;;4.47;3.17;;;8.60;99.90;;;;;;4982853;28;20321;-60
2021/01/20 09:30:54;;;;;;;3.90;2.90;;;8.60;99.90;;;;;;4974164;28;20243;-63
2021/01/20 09:33:21;;;;;;;3.80;3.30;;;8.60;99.90;;;;;;4991820;28;20205;-60
2021/01/20 09:35:47;;;;;;;3.30;3.00;;;8.60;99.90;;;;;;4992002;28;20651;-60
2021/01/20 09:38:16;;;;;;;3.30;2.80;;;8.60;99.90;;;;;;4992516;28;20216;-59
2021/01/20 09:40:42;;;;;;;3.90;3.10;;;8.60;99.90;;;;;;4992521;28;20194;-60
2021/01/20 09:43:09;;;;;;;3.97;2.87;;;8.60;99.90;;;;;;4975420;28;20205;-59
2021/01/20 09:45:36;;;;;;;5.10;3.07;;;8.60;99.90;;;;;;4984094;28;20606;-60
2021/01/20 09:48:04;;;;;;;4.83;3.30;;;8.40;99.90;;;;;;4992445;28;20225;-62
2021/01/20 09:50:34;;;;;;;5.43;2.70;;;8.30;99.90;;;;;;4993025;28;20193;-60
2021/01/20 09:53:01;;;;;;;5.20;3.23;;;8.30;99.90;;;;;;4992066;28;20204;-60
2021/01/20 09:55:28;;;;;;;4.73;3.10;;;8.20;99.90;;;;;;4991557;28;20205;-60
2021/01/20 09:57:55;;;;;;;3.07;2.77;;;8.30;99.90;;;;;;4991919;28;20651;-62
2021/01/20 10:00:22;;;;;;;3.27;2.80;;;8.30;99.90;;;;;;4984756;28;20678;-61
2021/01/20 10:02:49;;;;;;;4.97;3.43;;;8.40;99.90;;;;;;4985043;28;20204;-60
2021/01/20 10:05:16;;;;;;;3.80;2.77;;;8.40;99.90;;;;;;4993042;28;20206;-61
2021/01/20 10:07:43;;;;;;;3.40;2.83;;;8.50;99.90;;;;;;4991048;28;20241;-62
2021/01/20 10:10:12;;;;;;;3.33;3.00;;;8.60;99.90;;;;;;5000749;28;20231;-61
2021/01/20 10:12:40;;;;;;;4.13;2.50;;;8.70;99.90;;;;;;4999098;28;20201;-61
2021/01/20 10:15:09;;;;;;;2.97;2.67;;;8.80;99.90;;;;;;4995828;28;20359;-61
2021/01/20 10:17:36;;;;;;;5.57;3.10;;;8.90;99.90;;;;;;4999999;28;20197;-61
2021/01/20 10:20:03;;;;;;;4.40;2.60;;;9.00;99.90;;;;;;4995915;28;20210;-61
2021/01/20 10:22:29;;;;;;;4.20;2.77;;;9.00;99.90;;;;;;4993063;28;20197;-62
2021/01/20 10:24:56;;;;;;;6.30;3.40;;;9.10;99.90;;;;;;4991490;28;20205;-63
2021/01/20 10:27:23;;;;;;;4.97;3.13;;;9.00;99.90;;;;;;4995734;28;20761;-61
2021/01/20 10:29:50;;;;;;;5.37;2.53;;;9.00;99.90;;;;;;4997013;28;20233;-59
2021/01/20 10:32:17;;;;;;;3.67;3.07;;;9.00;99.90;;;;;;4996831;28;20201;-59
2021/01/20 10:34:43;;;;;;;3.97;3.33;;;8.90;99.90;;;;;;4996697;28;20205;-58
2021/01/20 10:37:10;;;;;;;3.43;2.63;;;8.90;99.90;;;;;;4986069;28;20233;-59
2021/01/20 10:39:36;;;;;;;4.93;3.30;;;9.00;99.90;;;;;;4990856;28;20201;-61
2021/01/20 10:42:03;;;;;;;3.37;3.07;;;9.00;99.90;;;;;;4986062;28;20655;-59
2021/01/20 10:44:30;;;;;;;3.50;2.50;;;9.00;99.90;;;;;;4995749;28;20209;-59
2021/01/20 10:46:57;;;;;;;4.47;3.27;;;9.00;99.90;;;;;;4996177;28;20193;-60
2021/01/20 10:49:23;;;;;;;3.70;2.70;;;9.00;99.90;;;;;;4995490;28;20212;-59
2021/01/20 10:51:50;;;;;;;2.90;2.60;;;9.00;99.90;;;;;;4996568;28;20210;-63
2021/01/20 10:54:17;;;;;;;4.97;2.43;;;9.00;99.90;;;;;;4994750;28;20234;-61
2021/01/20 10:56:43;;;;;;;3.20;2.70;;;9.00;99.90;;;;;;4977368;28;20277;-59
2021/01/20 10:59:10;;;;;;;4.53;2.67;;;8.90;99.90;;;;;;4994536;28;20260;-58
2021/01/20 11:01:37;;;;;;;7.70;5.37;;;8.90;99.90;;;;;;4995510;28;20209;-61
2021/01/20 11:04:05;;;;;;;4.70;2.73;;;8.80;99.90;;;;;;4995510;28;20208;-63
2021/01/20 11:06:31;;;;;;;4.80;2.37;;;8.90;99.90;;;;;;4995931;28;20234;-61
2021/01/20 11:08:59;;;;;;;3.53;2.50;;;8.80;99.90;;;;;;4995051;28;20321;-61
2021/01/20 11:11:26;;;;;;;3.37;2.80;;;8.80;99.90;;;;;;4994138;28;20220;-58
2021/01/20 11:13:53;;;;;;;4.03;2.70;;;8.80;99.90;;;;;;4995945;28;20204;-59
2021/01/20 11:16:20;;;;;;;4.90;3.27;;;8.80;99.90;;;;;;4988146;28;20202;-65
2021/01/20 11:18:46;;;;;;;3.07;2.63;;;8.80;99.90;;;;;;4987009;28;20202;-62
2021/01/20 11:21:15;;;;;;;6.20;3.00;;;8.90;99.90;;;;;;4989384;28;20198;-64
2021/01/20 11:23:42;;;;;;;4.03;2.80;;;8.90;99.90;;;;;;4976178;28;20656;-59
2021/01/20 11:26:10;;;;;;;4.17;2.63;;;8.90;99.90;;;;;;4986393;28;20240;-63
2021/01/20 11:28:36;;;;;;;4.40;3.10;;;9.00;99.90;;;;;;4992463;28;20224;-61
2021/01/20 11:31:03;;;;;;;3.23;2.93;;;9.00;99.90;;;;;;4977749;28;20207;-63
2021/01/20 11:33:30;;;;;;;3.20;2.77;;;9.10;99.90;;;;;;4995894;28;20678;-62
2021/01/20 11:35:56;;;;;;;4.03;3.17;;;9.10;99.90;;;;;;4995329;28;20201;-63
2021/01/20 11:38:24;;;;;;;5.27;2.83;;;9.10;99.90;;;;;;4992298;28;20643;-62
2021/01/20 11:40:50;;;;;;;4.47;2.70;;;9.10;99.90;;;;;;5007341;28;20254;-63
2021/01/20 11:43:17;;;;;;;3.23;2.90;;;9.10;99.90;;;;;;4996581;28;20666;-64
2021/01/20 11:45:43;;;;;;;3.90;2.90;;;9.10;99.90;;;;;;4993599;28;20209;-62
2021/01/20 11:48:10;;;;;;;4.10;2.87;;;9.10;99.90;;;;;;4994032;28;20276;-61
2021/01/20 11:50:36;;;;;;;2.87;2.67;;;9.10;99.90;;;;;;4994327;28;20207;-62
2021/01/20 11:53:03;;;;;;;3.10;2.80;;;9.10;99.90;;;;;;4994069;28;20197;-61
2021/01/20 11:55:31;;;;;;;3.10;2.80;;;9.10;99.90;;;;;;4993489;28;20252;-61
2021/01/20 11:57:58;;;;;;;4.07;2.50;;;9.20;99.90;;;;;;4991306;28;20211;-62
2021/01/20 12:00:24;;;;;;;6.37;2.93;;;9.20;99.90;;;;;;4991798;28;20256;-64
2021/01/20 12:02:51;;;;;;;5.97;2.93;;;9.20;99.90;;;;;;4990312;28;20206;-66
2021/01/20 12:05:18;;;;;;;3.47;2.83;;;9.30;99.90;;;;;;4976019;28;20209;-63
2021/01/20 12:07:45;;;;;;;4.90;2.50;;;9.30;99.90;;;;;;4978240;28;20241;-64
2021/01/20 12:10:13;;;;;;;3.13;2.57;;;9.40;99.90;;;;;;4995126;28;20206;-63
2021/01/20 12:12:41;;;;;;;4.80;2.30;;;9.50;99.90;;;;;;4987917;28;20278;-64
2021/01/20 12:15:09;;;;;;;3.67;2.70;;;9.60;99.90;;;;;;4991602;28;20208;-63
2021/01/20 12:17:35;;;;;;;3.93;2.87;;;9.70;99.90;;;;;;4997239;28;20228;-61
2021/01/20 12:20:03;;;;;;;2.90;2.60;;;9.70;99.90;;;;;;5003362;28;20220;-63
2021/01/20 12:22:29;;;;;;;3.30;2.80;;;9.70;99.90;;;;;;4995031;28;20197;-62
2021/01/20 12:24:56;;;;;;;3.93;2.70;;;9.70;99.90;;;;;;4993397;28;20563;-63
2021/01/20 12:27:22;;;;;;;2.90;2.60;;;9.70;99.90;;;;;;4987734;28;20594;-62
2021/01/20 12:29:49;;;;;;;4.40;2.97;;;9.70;99.90;;;;;;4993151;28;20202;-62
2021/01/20 12:32:16;;;;;;;3.53;2.87;;;9.70;99.90;;;;;;4993062;28;20206;-62
2021/01/20 12:34:42;;;;;;;3.23;2.93;;;9.70;99.90;;;;;;4992296;28;20202;-62
2021/01/20 12:37:10;;;;;;;5.40;3.80;;;9.70;99.90;;;;;;4993507;28;20202;-62
2021/01/20 12:39:37;;;;;;;4.67;3.20;;;9.70;99.90;;;;;;4989500;28;20209;-61
2021/01/20 12:42:04;;;;;;;5.27;3.50;;;9.70;99.90;;;;;;4990048;28;20563;-62
2021/01/20 12:44:30;;;;;;;5.17;3.30;;;9.70;99.90;;;;;;4993394;28;20202;-61
2021/01/20 12:46:58;;;;;;;4.80;3.17;;;9.70;99.90;;;;;;4992929;28;20202;-62
2021/01/20 12:49:24;;;;;;;4.27;3.00;;;9.80;99.90;;;;;;4991026;28;20206;-63
2021/01/20 12:51:51;;;;;;;3.40;3.00;;;9.80;99.90;;;;;;4993330;28;20201;-61
2021/01/20 12:54:17;;;;;;;6.13;3.30;;;9.80;99.90;;;;;;4991416;28;20220;-62
2021/01/20 12:56:44;;;;;;;5.07;3.03;;;9.90;99.90;;;;;;4991833;28;20205;-64